Terminal Aerodrome Forecast
Issued by NWS

Home | Current Version | Previous Version | Text Only | Print | Product List | Glossary On
Versions: 1 2 3 4 5 6 7 8 9 10 11 12 13 14 15 16 17 18 19 20
000
FTUS44 KOHX 281413 AAA
TAFCKV
TAF AMD
KCKV 281413Z 2814/0112 19011KT P6SM VCSH OVC012
     FM281900 20013G22KT P6SM VCSH OVC012
     FM010600 19015G25KT 3SM TSRA SCT008 OVC012CB=

USA.gov is the U.S. government's official web portal to all federal, state and local government web resources and services.